Time;durP1;ratioP1;P1;durP2;ratioP2;P2;SDS_P1;SDS_P2;PMS_P1;PMS_P2;Temp;Humidity;BMP_temperature;BMP_pressure;BME280_temperature;BME280_humidity;BME280_pressure;Samples;Min_cycle;Max_cycle;Signal;HPM_P1;HPM_P2
2022/02/26 00:00:45;;;;;;;;;15.00;14.75;8.80;50.10;;;;;;4916733;29;8814;-70
2022/02/26 00:03:11;;;;;;;;;14.25;13.50;9.20;50.20;;;;;;4916864;29;8769;-68
2022/02/26 00:05:40;;;;;;;;;10.00;9.00;9.20;50.30;;;;;;4897191;29;8794;-67
2022/02/26 00:08:05;;;;;;;;;10.00;10.00;9.30;50.40;;;;;;4916492;29;8759;-66
2022/02/26 00:10:31;;;;;;;;;12.00;12.00;9.30;50.40;;;;;;4916444;29;8813;-68
2022/02/26 00:12:57;;;;;;;;;9.00;7.75;9.20;50.90;;;;;;4916550;29;9421;-67
2022/02/26 00:15:23;;;;;;;;;17.75;17.75;9.30;50.90;;;;;;4916511;29;8914;-66
2022/02/26 00:17:49;;;;;;;;;11.75;11.75;9.10;51.30;;;;;;4916594;29;8809;-67
2022/02/26 00:20:16;;;;;;;;;13.25;13.00;8.80;52.30;;;;;;4916383;29;8808;-67
2022/02/26 00:22:42;;;;;;;;;8.25;8.25;8.50;53.40;;;;;;4916794;29;8829;-69
2022/02/26 00:25:08;;;;;;;;;14.25;12.00;8.50;54.10;;;;;;4916516;29;8774;-68
2022/02/26 00:27:35;;;;;;;;;13.50;12.50;8.50;53.90;;;;;;4916398;29;8771;-67
2022/02/26 00:30:00;;;;;;;;;11.25;11.00;8.30;54.70;;;;;;4913944;29;8830;-68
2022/02/26 00:32:26;;;;;;;;;10.25;9.25;8.10;55.70;;;;;;4916097;29;8831;-70
2022/02/26 00:34:52;;;;;;;;;11.25;10.25;8.20;55.90;;;;;;4916558;29;8774;-70
2022/02/26 00:37:18;;;;;;;;;8.25;8.25;8.20;55.20;;;;;;4916263;29;8778;-71
2022/02/26 00:39:44;;;;;;;;;9.25;9.25;8.40;55.80;;;;;;4916703;29;8787;-70
2022/02/26 00:42:10;;;;;;;;;16.00;13.00;8.40;55.20;;;;;;4919687;29;8770;-70
2022/02/26 00:44:38;;;;;;;;;14.00;12.00;8.40;55.20;;;;;;4919509;29;8790;-69
2022/02/26 00:47:05;;;;;;;;;19.50;17.00;8.40;56.10;;;;;;4918034;29;8810;-70
2022/02/26 00:49:52;;;;;;;;;10.00;10.00;8.30;56.30;;;;;;4919564;29;8861;-69
2022/02/26 00:52:29;;;;;;;;;11.00;11.00;8.20;56.40;;;;;;4919212;29;8850;-69
2022/02/26 00:54:56;;;;;;;;;10.00;10.00;8.30;56.20;;;;;;4919664;29;8798;-71
2022/02/26 00:57:22;;;;;;;;;12.25;10.50;8.30;56.40;;;;;;4916951;29;8871;-69
2022/02/26 00:59:48;;;;;;;;;13.00;10.00;8.40;55.20;;;;;;4919093;29;8768;-70
2022/02/26 01:02:14;;;;;;;;;7.75;7.75;8.30;55.90;;;;;;4919302;29;8852;-70
2022/02/26 01:04:40;;;;;;;;;15.50;12.50;8.30;56.40;;;;;;4919053;29;8857;-70
2022/02/26 01:07:07;;;;;;;;;11.25;11.00;8.10;56.90;;;;;;4918912;29;9466;-70
2022/02/26 01:09:34;;;;;;;;;13.00;13.00;8.00;57.20;;;;;;4919154;29;8780;-70
2022/02/26 01:12:00;;;;;;;;;11.25;11.25;8.10;57.00;;;;;;4918970;29;8817;-68
2022/02/26 01:14:26;;;;;;;;;11.50;11.50;8.40;57.10;;;;;;4919092;29;8759;-70
2022/02/26 01:16:52;;;;;;;;;14.50;14.50;8.20;56.30;;;;;;4919045;29;8816;-70
2022/02/26 01:19:18;;;;;;;;;14.00;14.00;8.30;56.40;;;;;;4918894;29;8785;-70
2022/02/26 01:21:44;;;;;;;;;15.50;13.50;8.20;56.60;;;;;;4918832;29;8816;-69
2022/02/26 01:24:11;;;;;;;;;5.50;5.25;8.00;56.80;;;;;;4918992;29;8782;-69
2022/02/26 01:26:38;;;;;;;;;12.50;9.75;8.30;56.40;;;;;;4918828;29;8996;-70
2022/02/26 01:29:04;;;;;;;;;7.75;7.75;8.30;55.70;;;;;;4919047;29;9422;-70
2022/02/26 01:31:31;;;;;;;;;10.75;6.00;8.20;55.80;;;;;;4918815;29;8856;-69
2022/02/26 01:33:57;;;;;;;;;13.00;12.00;8.30;56.20;;;;;;4918425;29;8794;-69
2022/02/26 01:36:22;;;;;;;;;11.50;11.50;8.40;55.90;;;;;;4918753;29;8856;-70
2022/02/26 01:38:48;;;;;;;;;16.75;15.00;8.40;55.20;;;;;;4918611;29;8785;-69
2022/02/26 01:41:14;;;;;;;;;12.50;12.25;8.60;55.10;;;;;;4918680;29;8827;-72
2022/02/26 01:43:40;;;;;;;;;17.00;15.00;8.30;55.30;;;;;;4918531;29;8877;-69
2022/02/26 01:46:07;;;;;;;;;12.50;12.50;8.20;56.70;;;;;;4918711;29;8798;-69
2022/02/26 01:48:35;;;;;;;;;7.25;7.25;8.20;56.90;;;;;;4918469;29;8796;-70
2022/02/26 01:51:02;;;;;;;;;14.00;14.00;8.20;56.10;;;;;;4915896;29;9449;-69
2022/02/26 01:53:28;;;;;;;;;17.75;14.00;8.10;56.40;;;;;;4918003;29;8827;-68
2022/02/26 01:55:53;;;;;;;;;15.50;13.50;8.50;55.60;;;;;;4900771;29;8770;-69
2022/02/26 01:58:20;;;;;;;;;13.25;12.50;8.50;54.90;;;;;;4900867;29;8782;-67
2022/02/26 02:00:46;;;;;;;;;10.00;9.50;8.20;55.60;;;;;;4900699;29;8816;-68
2022/02/26 02:03:12;;;;;;;;;15.00;15.00;8.10;56.10;;;;;;4900743;29;9461;-70
2022/02/26 02:05:39;;;;;;;;;13.50;13.50;8.50;54.70;;;;;;4900685;29;8778;-69
2022/02/26 02:08:05;;;;;;;;;17.75;13.75;8.40;54.50;;;;;;4900432;29;9329;-70
2022/02/26 02:10:33;;;;;;;;;10.00;10.00;8.20;55.60;;;;;;4900670;29;8800;-68
2022/02/26 02:13:00;;;;;;;;;15.75;11.25;8.20;55.30;;;;;;4900383;29;8792;-68
2022/02/26 02:15:35;;;;;;;;;12.25;11.25;8.00;55.40;;;;;;4900388;29;8773;-68
2022/02/26 02:18:02;;;;;;;;;12.00;12.00;8.20;55.70;;;;;;4900356;29;8754;-68
2022/02/26 02:20:28;;;;;;;;;13.00;10.25;8.10;55.30;;;;;;4900448;29;8804;-68
2022/02/26 02:22:54;;;;;;;;;15.75;12.00;8.20;55.00;;;;;;4900464;29;8845;-70
2022/02/26 02:25:26;;;;;;;;;12.00;10.00;8.30;54.60;;;;;;4900461;29;8781;-69
2022/02/26 02:27:52;;;;;;;;;12.25;11.25;8.30;54.50;;;;;;4900359;29;8781;-70
2022/02/26 02:30:17;;;;;;;;;10.00;9.25;8.70;52.90;;;;;;4900101;29;8820;-68
2022/02/26 02:32:43;;;;;;;;;11.50;11.50;8.60;53.20;;;;;;4900112;29;8927;-68
2022/02/26 02:35:29;;;;;;;;;4.00;4.00;8.80;52.30;;;;;;4900005;29;8789;-68
2022/02/26 02:37:55;;;;;;;;;13.25;13.00;8.60;52.80;;;;;;4900180;29;8777;-70
2022/02/26 02:40:23;;;;;;;;;14.00;14.00;8.40;53.20;;;;;;4900205;29;8778;-69
2022/02/26 02:42:49;;;;;;;;;12.00;12.00;8.50;53.90;;;;;;4900047;29;9490;-68
2022/02/26 02:45:15;;;;;;;;;12.75;12.75;8.80;53.20;;;;;;4899858;29;8798;-67
2022/02/26 02:47:40;;;;;;;;;12.25;12.25;8.80;53.40;;;;;;4899836;29;8790;-68
2022/02/26 02:50:07;;;;;;;;;10.75;10.75;8.70;53.10;;;;;;4899686;29;8777;-70
2022/02/26 02:52:32;;;;;;;;;10.00;10.00;9.00;51.90;;;;;;4900016;29;8896;-69
2022/02/26 02:54:58;;;;;;;;;13.50;11.75;9.20;51.30;;;;;;4899939;29;8793;-68
2022/02/26 02:57:24;;;;;;;;;11.50;11.50;9.00;51.30;;;;;;4899865;29;8789;-67
2022/02/26 02:59:50;;;;;;;;;12.00;10.00;8.80;51.60;;;;;;4899964;29;8806;-71
2022/02/26 03:02:15;;;;;;;;;13.00;10.00;8.80;51.40;;;;;;4899673;29;8892;-70
2022/02/26 03:04:41;;;;;;;;;14.00;10.75;8.20;52.50;;;;;;4898652;29;8816;-70
2022/02/26 03:07:07;;;;;;;;;8.75;8.75;8.40;52.70;;;;;;4899491;29;8801;-71
2022/02/26 03:09:32;;;;;;;;;10.00;10.00;8.90;51.20;;;;;;4899434;29;8880;-69
2022/02/26 03:11:58;;;;;;;;;11.75;10.25;9.50;49.40;;;;;;4899506;29;8770;-69
2022/02/26 03:14:24;;;;;;;;;12.00;10.25;9.80;48.00;;;;;;4899473;29;8785;-69
2022/02/26 03:16:50;;;;;;;;;10.00;10.00;10.10;47.30;;;;;;4899392;29;8774;-69
2022/02/26 03:19:15;;;;;;;;;14.75;13.00;10.40;46.70;;;;;;4899608;29;8858;-68
2022/02/26 03:21:41;;;;;;;;;12.25;12.25;10.70;45.50;;;;;;4899312;29;8821;-69
2022/02/26 03:24:12;;;;;;;;;12.50;11.50;10.90;44.90;;;;;;4899494;29;8798;-68
2022/02/26 03:26:38;;;;;;;;;13.00;12.00;11.20;44.10;;;;;;4899291;29;8917;-68
2022/02/26 03:29:07;;;;;;;;;12.25;12.25;11.30;43.50;;;;;;4899345;29;8773;-68
2022/02/26 03:31:33;;;;;;;;;8.00;8.00;11.30;43.30;;;;;;4899510;29;8799;-68
2022/02/26 03:33:59;;;;;;;;;10.75;10.75;11.30;43.10;;;;;;4899089;29;8821;-67
2022/02/26 03:36:27;;;;;;;;;12.50;12.00;11.20;43.50;;;;;;4899227;29;8808;-68
2022/02/26 03:38:53;;;;;;;;;7.00;7.00;11.00;43.40;;;;;;4899465;29;8777;-70
2022/02/26 03:41:19;;;;;;;;;10.25;10.25;10.90;43.50;;;;;;4899053;29;8821;-68
2022/02/26 03:43:46;;;;;;;;;9.00;9.00;10.70;43.80;;;;;;4899157;29;8812;-68
2022/02/26 03:46:12;;;;;;;;;9.00;9.00;10.40;44.90;;;;;;4899385;29;8781;-68
2022/02/26 03:48:38;;;;;;;;;9.00;9.00;9.60;46.80;;;;;;4899354;29;9476;-69
2022/02/26 03:51:05;;;;;;;;;10.25;10.25;9.80;46.50;;;;;;4899330;29;8766;-71
2022/02/26 03:53:32;;;;;;;;;9.00;9.00;9.90;46.70;;;;;;4899406;29;8924;-70
2022/02/26 03:55:59;;;;;;;;;8.25;8.25;10.20;46.30;;;;;;4899092;29;8793;-69
2022/02/26 03:58:25;;;;;;;;;10.75;10.75;9.80;46.50;;;;;;4899087;29;8805;-69
2022/02/26 04:00:51;;;;;;;;;10.75;9.50;9.40;48.00;;;;;;4899005;29;8797;-68
2022/02/26 04:03:17;;;;;;;;;4.00;4.00;9.50;47.90;;;;;;4899009;29;9033;-68
2022/02/26 04:05:43;;;;;;;;;9.75;8.00;9.90;47.90;;;;;;4899216;29;8801;-69
2022/02/26 04:08:08;;;;;;;;;18.25;18.25;10.20;47.30;;;;;;4898873;29;8896;-70
2022/02/26 04:10:34;;;;;;;;;16.50;16.50;10.50;47.00;;;;;;4898897;29;8777;-70
2022/02/26 04:13:00;;;;;;;;;18.25;15.00;10.60;46.60;;;;;;4899154;29;8781;-69
2022/02/26 04:15:26;;;;;;;;;13.50;13.50;11.10;45.50;;;;;;4900574;29;8770;-71
2022/02/26 04:17:52;;;;;;;;;14.75;14.50;11.20;45.00;;;;;;4902574;29;8777;-69
2022/02/26 04:20:18;;;;;;;;;17.25;17.00;11.50;44.40;;;;;;4902457;29;8789;-68
2022/02/26 04:22:44;;;;;;;;;22.00;17.00;11.70;44.30;;;;;;4902267;29;8960;-68
2022/02/26 04:25:10;;;;;;;;;18.50;17.00;11.70;43.90;;;;;;4902532;29;8771;-68
2022/02/26 04:27:38;;;;;;;;;20.00;18.75;11.90;44.40;;;;;;4902523;29;8777;-69
2022/02/26 04:30:05;;;;;;;;;20.00;19.00;11.80;44.10;;;;;;4902235;29;8781;-68
2022/02/26 04:32:31;;;;;;;;;20.25;18.75;11.90;44.10;;;;;;4902036;29;8813;-66
2022/02/26 04:34:57;;;;;;;;;17.25;16.75;12.00;44.10;;;;;;4902502;29;8847;-68
2022/02/26 04:37:22;;;;;;;;;15.00;15.00;11.70;44.20;;;;;;4902263;29;8789;-68
2022/02/26 04:39:50;;;;;;;;;16.00;14.00;11.50;44.90;;;;;;4902073;29;9431;-67
2022/02/26 04:42:17;;;;;;;;;12.25;12.25;11.40;45.10;;;;;;4902175;29;9495;-68
2022/02/26 04:44:44;;;;;;;;;12.25;12.25;11.20;44.80;;;;;;4901987;29;8861;-68
2022/02/26 04:47:11;;;;;;;;;14.25;11.75;10.20;47.00;;;;;;4902196;29;8812;-68
2022/02/26 04:49:38;;;;;;;;;12.00;12.00;9.50;49.30;;;;;;4901914;29;8824;-68
2022/02/26 04:52:04;;;;;;;;;16.75;13.00;10.30;48.40;;;;;;4902034;29;8829;-69
2022/02/26 04:54:30;;;;;;;;;17.75;17.75;10.60;47.60;;;;;;4901843;29;8785;-71
2022/02/26 04:56:56;;;;;;;;;15.25;15.25;10.50;48.40;;;;;;4901808;29;8968;-70
2022/02/26 04:59:21;;;;;;;;;17.00;17.00;10.80;47.10;;;;;;4901751;29;8770;-68
2022/02/26 05:01:47;;;;;;;;;13.75;13.00;11.30;45.90;;;;;;4901663;29;8833;-68
2022/02/26 05:04:13;;;;;;;;;16.50;15.00;11.50;45.50;;;;;;4901588;29;8793;-70
2022/02/26 05:06:39;;;;;;;;;12.75;8.75;11.50;44.30;;;;;;4901590;29;8785;-69
2022/02/26 05:09:04;;;;;;;;;10.75;10.50;10.30;47.60;;;;;;4901877;29;8770;-69
2022/02/26 05:11:31;;;;;;;;;10.00;10.00;9.90;49.20;;;;;;4901765;29;8786;-70
2022/02/26 05:13:56;;;;;;;;;11.75;11.75;9.60;50.40;;;;;;4901709;29;8777;-70
2022/02/26 05:16:22;;;;;;;;;10.50;10.50;9.30;52.20;;;;;;4901693;29;8818;-68
2022/02/26 05:18:48;;;;;;;;;15.00;11.50;9.40;52.80;;;;;;4901410;29;8868;-71
2022/02/26 05:21:14;;;;;;;;;6.50;5.75;9.50;52.40;;;;;;4901281;29;8813;-67
2022/02/26 05:23:42;;;;;;;;;16.75;14.00;9.30;53.20;;;;;;4901658;29;8818;-70
2022/02/26 05:26:12;;;;;;;;;13.50;13.25;9.00;54.40;;;;;;4900540;29;8840;-70
2022/02/26 05:28:39;;;;;;;;;11.75;11.75;8.80;56.60;;;;;;4901332;29;8785;-70
2022/02/26 05:31:05;;;;;;;;;15.50;15.00;8.90;56.20;;;;;;4901215;29;8792;-69
2022/02/26 05:33:35;;;;;;;;;15.50;15.50;8.60;57.30;;;;;;4901156;29;9456;-67
2022/02/26 05:36:03;;;;;;;;;14.50;13.50;8.70;57.80;;;;;;4901000;29;8793;-68
2022/02/26 05:38:28;;;;;;;;;22.25;21.25;9.20;56.10;;;;;;4903717;29;8902;-68
2022/02/26 05:40:54;;;;;;;;;26.00;22.50;9.40;54.10;;;;;;4919671;29;8902;-70
2022/02/26 05:43:20;;;;;;;;;13.25;12.75;9.40;54.20;;;;;;4919793;29;8799;-68
2022/02/26 05:45:46;;;;;;;;;12.25;12.25;9.20;54.40;;;;;;4919911;29;8771;-69
2022/02/26 05:48:12;;;;;;;;;17.25;15.25;9.50;54.00;;;;;;4920015;29;8775;-70
2022/02/26 05:50:38;;;;;;;;;20.75;18.25;10.20;52.10;;;;;;4919640;29;8779;-68
2022/02/26 05:53:04;;;;;;;;;16.50;15.00;10.50;50.40;;;;;;4919904;29;9454;-68
2022/02/26 05:55:31;;;;;;;;;15.00;15.00;10.10;50.40;;;;;;4919843;29;8799;-68
2022/02/26 05:57:57;;;;;;;;;13.50;13.00;9.30;52.30;;;;;;4919778;29;9641;-68
2022/02/26 06:00:24;;;;;;;;;15.00;12.75;9.50;52.90;;;;;;4919483;29;8787;-67
2022/02/26 06:02:50;;;;;;;;;13.75;13.75;9.60;52.60;;;;;;4919585;29;8921;-70
2022/02/26 06:05:16;;;;;;;;;17.25;16.00;9.60;53.40;;;;;;4919966;29;8775;-69
2022/02/26 06:07:41;;;;;;;;;18.25;17.25;9.90;52.30;;;;;;4919179;29;9442;-68
2022/02/26 06:10:08;;;;;;;;;16.50;16.50;9.90;52.10;;;;;;4919503;29;8840;-69
2022/02/26 06:12:34;;;;;;;;;14.00;14.00;9.70;52.30;;;;;;4919491;29;8802;-70
2022/02/26 06:14:59;;;;;;;;;15.00;15.00;10.00;51.90;;;;;;4919204;29;8787;-68
2022/02/26 06:17:25;;;;;;;;;21.00;20.00;10.30;50.60;;;;;;4919028;29;8810;-69
2022/02/26 06:19:51;;;;;;;;;18.50;18.50;10.80;49.70;;;;;;4919121;29;8779;-69
2022/02/26 06:22:16;;;;;;;;;19.00;19.00;11.10;48.60;;;;;;4919087;29;8855;-70
2022/02/26 06:24:43;;;;;;;;;24.75;22.50;10.70;49.00;;;;;;4918880;29;8809;-69
2022/02/26 06:27:09;;;;;;;;;23.25;21.50;11.10;48.20;;;;;;4902364;29;8902;-69
2022/02/26 06:29:35;;;;;;;;;28.00;24.25;11.20;47.70;;;;;;4919169;29;8795;-69
2022/02/26 06:32:01;;;;;;;;;23.75;23.00;11.30;47.90;;;;;;4918904;29;9445;-71
2022/02/26 06:34:29;;;;;;;;;28.00;23.50;11.50;46.80;;;;;;4918741;29;8822;-69
2022/02/26 06:36:55;;;;;;;;;15.25;15.25;11.40;47.20;;;;;;4918893;29;8772;-71
2022/02/26 06:39:21;;;;;;;;;29.50;29.00;11.30;47.40;;;;;;4918522;29;8874;-70
2022/02/26 06:41:47;;;;;;;;;25.00;23.25;11.20;47.00;;;;;;4918701;29;8890;-70
2022/02/26 06:44:12;;;;;;;;;26.50;25.75;11.30;47.10;;;;;;4917647;29;8787;-71
2022/02/26 06:46:39;;;;;;;;;17.75;16.00;11.50;46.70;;;;;;4918579;29;8796;-69
2022/02/26 06:49:05;;;;;;;;;27.00;27.00;11.60;46.30;;;;;;4918627;29;8799;-70
2022/02/26 06:51:32;;;;;;;;;26.50;26.50;11.70;46.10;;;;;;4918399;29;8791;-69
2022/02/26 06:53:58;;;;;;;;;24.00;24.00;11.60;45.70;;;;;;4918671;29;8828;-70
2022/02/26 06:56:24;;;;;;;;;22.75;22.75;11.10;46.60;;;;;;4918746;29;8793;-68
2022/02/26 06:58:54;;;;;;;;;19.00;18.00;11.10;47.30;;;;;;4918468;29;9466;-70
2022/02/26 07:01:21;;;;;;;;;4.50;2.25;10.70;47.40;;;;;;4918396;29;8842;-69
2022/02/26 07:03:47;;;;;;;;;16.75;15.00;10.10;50.40;;;;;;4918617;29;8795;-67
2022/02/26 07:06:13;;;;;;;;;19.75;16.50;9.30;52.90;;;;;;4918378;29;8874;-68
2022/02/26 07:08:38;;;;;;;;;19.50;19.50;8.90;54.70;;;;;;4918266;29;8810;-68
2022/02/26 07:11:04;;;;;;;;;18.75;17.75;9.80;53.00;;;;;;4918584;29;8767;-70
2022/02/26 07:13:31;;;;;;;;;20.25;20.25;9.50;53.00;;;;;;4918519;29;9545;-70
2022/02/26 07:15:58;;;;;;;;;18.50;18.00;9.30;54.10;;;;;;4918305;29;8866;-67
2022/02/26 07:18:24;;;;;;;;;16.00;15.25;9.10;54.40;;;;;;4917225;29;8779;-67
2022/02/26 07:20:49;;;;;;;;;17.25;17.25;8.50;56.50;;;;;;4918134;29;9415;-68
2022/02/26 07:23:16;;;;;;;;;11.75;11.75;8.30;58.30;;;;;;4918393;29;8803;-68
2022/02/26 07:25:42;;;;;;;;;15.75;14.50;8.20;59.40;;;;;;4918468;29;8788;-66
2022/02/26 07:28:17;;;;;;;;;18.75;16.75;8.20;59.50;;;;;;4918015;29;8810;-66
2022/02/26 07:30:43;;;;;;;;;16.00;14.50;8.40;59.40;;;;;;4918020;29;8783;-67
2022/02/26 07:33:10;;;;;;;;;12.75;12.00;8.70;57.10;;;;;;4918155;29;8799;-67
2022/02/26 07:35:36;;;;;;;;;17.50;17.50;8.30;58.00;;;;;;4918154;29;8787;-65
2022/02/26 07:38:03;;;;;;;;;10.75;9.75;7.80;61.70;;;;;;4917877;29;8797;-66
2022/02/26 07:40:29;;;;;;;;;14.75;13.50;8.20;61.20;;;;;;4918033;29;8814;-67
2022/02/26 07:42:55;;;;;;;;;14.00;14.00;8.10;60.50;;;;;;4917889;29;8826;-67
2022/02/26 07:45:21;;;;;;;;;16.00;15.25;8.10;61.20;;;;;;4917942;29;8780;-67
2022/02/26 07:47:50;;;;;;;;;20.25;18.50;8.60;60.60;;;;;;4917846;29;8811;-67
2022/02/26 07:50:16;;;;;;;;;18.00;16.00;8.50;58.90;;;;;;4918961;29;8878;-67
2022/02/26 07:52:42;;;;;;;;;16.50;15.25;8.80;59.40;;;;;;4921696;29;8906;-67
2022/02/26 07:55:09;;;;;;;;;21.50;20.00;8.10;60.10;;;;;;4921759;29;8760;-65
2022/02/26 07:57:35;;;;;;;;;16.25;16.00;8.40;61.00;;;;;;4921859;29;8771;-66
2022/02/26 08:00:03;;;;;;;;;31.75;29.50;8.80;59.00;;;;;;4921602;29;8771;-65
2022/02/26 08:02:28;;;;;;;;;31.00;29.50;9.90;56.20;;;;;;4920937;29;9458;-66
2022/02/26 08:04:54;;;;;;;;;29.25;26.50;10.00;55.00;;;;;;4921446;29;8791;-65
2022/02/26 08:07:20;;;;;;;;;28.50;28.50;10.00;53.50;;;;;;4921322;29;8817;-65
2022/02/26 08:09:46;;;;;;;;;27.50;23.25;10.30;53.10;;;;;;4921508;29;8788;-66
2022/02/26 08:12:14;;;;;;;;;27.25;26.00;10.50;53.10;;;;;;4921340;29;8890;-66
2022/02/26 08:14:40;;;;;;;;;23.25;23.25;10.20;51.90;;;;;;4921606;29;8787;-66
2022/02/26 08:17:06;;;;;;;;;32.00;29.50;9.60;53.70;;;;;;4921389;29;8850;-67
2022/02/26 08:19:33;;;;;;;;;41.25;36.50;9.30;55.10;;;;;;4920921;29;8804;-66
2022/02/26 08:21:59;;;;;;;;;26.00;25.50;9.50;55.30;;;;;;4920203;29;9012;-67
2022/02/26 08:24:25;;;;;;;;;31.00;30.00;9.40;55.90;;;;;;4920258;29;8890;-66
2022/02/26 08:26:51;;;;;;;;;32.25;27.75;9.20;55.50;;;;;;4920076;29;8890;-70
2022/02/26 08:29:17;;;;;;;;;34.50;32.25;9.30;55.50;;;;;;4921057;29;8780;-68
2022/02/26 08:31:43;;;;;;;;;35.25;30.50;9.50;56.50;;;;;;4919990;29;8831;-70
2022/02/26 08:34:09;;;;;;;;;38.50;32.50;9.20;57.50;;;;;;4920511;29;9521;-70
2022/02/26 08:36:35;;;;;;;;;37.25;34.50;9.50;57.30;;;;;;4920912;29;8787;-69
2022/02/26 08:39:02;;;;;;;;;40.50;35.00;9.50;58.10;;;;;;4921133;29;9458;-69
2022/02/26 08:41:28;;;;;;;;;34.50;30.75;9.00;60.20;;;;;;4921007;29;8823;-70
2022/02/26 08:43:54;;;;;;;;;35.75;30.25;9.20;60.30;;;;;;4920350;29;8794;-70
2022/02/26 08:46:20;;;;;;;;;30.25;30.00;9.30;59.60;;;;;;4920743;29;8874;-70
2022/02/26 08:48:46;;;;;;;;;30.75;29.00;8.70;62.20;;;;;;4920688;29;8784;-68
2022/02/26 08:51:13;;;;;;;;;27.25;25.25;9.50;60.50;;;;;;4920308;29;8783;-67
2022/02/26 08:53:39;;;;;;;;;35.50;33.00;10.10;56.90;;;;;;4919718;29;8811;-69
2022/02/26 08:56:04;;;;;;;;;42.75;37.75;10.50;56.40;;;;;;4920076;29;8870;-66
2022/02/26 08:58:30;;;;;;;;;42.00;36.75;10.50;55.80;;;;;;4916064;29;8796;-66
2022/02/26 09:00:56;;;;;;;;;53.00;41.75;10.80;54.50;;;;;;4920361;29;8883;-66
2022/02/26 09:03:22;;;;;;;;;40.75;37.25;11.20;52.70;;;;;;4919465;29;8801;-66
2022/02/26 09:05:50;;;;;;;;;47.00;40.25;11.10;53.40;;;;;;4919800;29;8800;-66
2022/02/26 09:08:16;;;;;;;;;40.50;37.00;11.50;52.90;;;;;;4920120;29;8791;-66
2022/02/26 09:10:41;;;;;;;;;52.50;42.00;11.60;51.90;;;;;;4920555;29;8788;-68
2022/02/26 09:13:08;;;;;;;;;36.50;35.50;11.60;52.00;;;;;;4919882;29;8819;-67
2022/02/26 09:15:34;;;;;;;;;31.50;27.75;11.60;51.40;;;;;;4920126;29;9470;-66
2022/02/26 09:18:00;;;;;;;;;20.75;20.75;11.70;51.20;;;;;;4919823;29;8788;-67
2022/02/26 09:20:26;;;;;;;;;24.50;23.75;12.00;50.20;;;;;;4918358;29;8807;-67
2022/02/26 09:22:52;;;;;;;;;30.00;30.00;12.20;49.30;;;;;;4917293;29;8869;-71
2022/02/26 09:25:18;;;;;;;;;30.75;29.00;12.40;49.10;;;;;;4918323;29;8800;-68
2022/02/26 09:27:45;;;;;;;;;39.75;32.50;12.10;49.50;;;;;;4919437;29;8771;-68
2022/02/26 09:30:12;;;;;;;;;33.50;32.50;12.30;49.30;;;;;;4920040;29;8789;-68
2022/02/26 09:32:38;;;;;;;;;40.50;34.50;12.20;49.80;;;;;;4916573;29;9503;-75
2022/02/26 09:35:05;;;;;;;;;35.00;32.00;12.20;49.10;;;;;;4919632;29;8778;-67
2022/02/26 09:37:31;;;;;;;;;29.50;26.75;12.20;49.00;;;;;;4919959;29;8890;-74
2022/02/26 09:39:59;;;;;;;;;30.00;29.00;12.00;49.20;;;;;;4919905;29;8799;-69
2022/02/26 09:42:29;;;;;;;;;32.00;30.00;12.20;49.00;;;;;;4919558;29;8810;-70
2022/02/26 09:44:56;;;;;;;;;26.00;24.50;12.20;49.30;;;;;;4919772;29;8787;-69
2022/02/26 09:47:22;;;;;;;;;31.25;29.75;12.10;49.30;;;;;;4919854;29;8810;-69
2022/02/26 09:49:49;;;;;;;;;34.50;33.50;12.30;48.80;;;;;;4919722;29;8787;-69
2022/02/26 09:52:17;;;;;;;;;30.00;30.00;12.10;49.30;;;;;;4919799;29;8811;-72
2022/02/26 09:54:50;;;;;;;;;24.25;24.00;12.10;49.30;;;;;;4919680;29;8792;-68
2022/02/26 09:57:17;;;;;;;;;36.50;33.00;12.40;49.00;;;;;;4919458;29;8779;-68
2022/02/26 09:59:45;;;;;;;;;31.50;30.50;12.50;48.00;;;;;;4919524;29;8763;-69
2022/02/26 10:02:12;;;;;;;;;43.75;39.50;12.70;47.30;;;;;;4917579;29;8961;-71
2022/02/26 10:04:51;;;;;;;;;30.75;27.75;12.70;46.50;;;;;;4918572;29;8804;-68
2022/02/26 10:07:17;;;;;;;;;46.50;40.00;12.90;45.90;;;;;;4911768;29;8795;-69
2022/02/26 10:09:45;;;;;;;;;43.00;38.25;13.00;45.30;;;;;;4919548;29;8807;-71
2022/02/26 10:12:24;;;;;;;;;40.00;35.75;13.20;45.40;;;;;;4917902;29;8784;-69
2022/02/26 10:14:53;;;;;;;;;40.50;37.75;13.40;44.80;;;;;;4917555;29;8791;-69
2022/02/26 10:17:26;;;;;;;;;45.25;39.25;13.50;43.90;;;;;;4919244;29;8783;-69
2022/02/26 10:20:09;;;;;;;;;35.00;33.50;12.90;45.60;;;;;;4918744;29;8803;-68
2022/02/26 10:22:38;;;;;;;;;33.75;30.50;12.60;46.50;;;;;;4918720;29;8823;-67
2022/02/26 10:25:15;;;;;;;;;28.75;28.25;12.40;46.90;;;;;;4918397;29;8807;-70
2022/02/26 10:27:53;;;;;;;;;38.50;35.75;12.30;47.30;;;;;;4914634;29;8898;-70
2022/02/26 10:30:28;;;;;;;;;31.00;31.00;12.70;46.70;;;;;;4919023;29;8896;-70
2022/02/26 10:33:14;;;;;;;;;42.50;38.00;13.10;46.20;;;;;;4917902;29;8811;-71
2022/02/26 10:35:43;;;;;;;;;44.75;39.75;13.40;45.10;;;;;;4918507;29;8833;-73
2022/02/26 10:38:18;;;;;;;;;47.00;41.00;13.30;44.40;;;;;;4917887;29;8799;-68
2022/02/26 10:40:57;;;;;;;;;45.25;38.00;13.30;44.70;;;;;;4917663;29;8834;-66
2022/02/26 10:43:47;;;;;;;;;41.00;37.25;13.20;45.00;;;;;;4917190;29;8799;-66
2022/02/26 10:46:31;;;;;;;;;43.00;37.75;12.90;44.90;;;;;;4913545;29;8792;-66
2022/02/26 10:49:09;;;;;;;;;30.50;30.25;12.70;45.80;;;;;;4912983;29;8788;-70
2022/02/26 10:51:38;;;;;;;;;27.50;24.75;11.60;46.30;;;;;;4916556;29;8886;-71
2022/02/26 10:54:09;;;;;;;;;28.00;28.00;12.10;46.10;;;;;;4917262;29;8829;-69
2022/02/26 10:56:44;;;;;;;;;32.25;29.25;11.60;46.10;;;;;;4918258;29;8783;-67
2022/02/26 10:59:12;;;;;;;;;31.75;30.75;12.00;46.70;;;;;;4918512;29;8779;-69
2022/02/26 11:01:39;;;;;;;;;32.50;31.50;12.90;44.60;;;;;;4918633;29;8869;-69
2022/02/26 11:04:05;;;;;;;;;39.75;34.00;13.50;43.10;;;;;;4918395;29;8795;-67
2022/02/26 11:06:33;;;;;;;;;32.00;31.75;14.10;42.70;;;;;;4917626;29;8775;-68
2022/02/26 11:08:59;;;;;;;;;64.25;51.75;13.70;41.80;;;;;;4918287;29;8787;-66
2022/02/26 11:11:26;;;;;;;;;55.50;45.75;13.20;41.20;;;;;;4918587;29;8791;-70
2022/02/26 11:13:54;;;;;;;;;25.50;25.50;13.40;41.80;;;;;;4918522;29;9537;-67
2022/02/26 11:16:21;;;;;;;;;33.75;32.25;12.80;43.60;;;;;;4918222;29;8810;-68
2022/02/26 11:18:51;;;;;;;;;23.00;23.00;13.20;43.50;;;;;;4918197;29;8793;-69
2022/02/26 11:21:21;;;;;;;;;30.25;30.00;12.50;43.50;;;;;;4918159;29;8834;-68
2022/02/26 11:23:49;;;;;;;;;31.25;29.00;12.80;43.60;;;;;;4918202;29;8807;-68
2022/02/26 11:26:19;;;;;;;;;30.25;29.75;12.70;43.90;;;;;;4917959;29;9442;-70
2022/02/26 11:28:50;;;;;;;;;28.25;26.75;13.10;43.40;;;;;;4917740;29;8803;-69
2022/02/26 11:31:22;;;;;;;;;25.25;20.50;12.90;42.70;;;;;;4917505;29;8857;-67
2022/02/26 11:33:48;;;;;;;;;26.75;26.75;12.70;43.50;;;;;;4918008;29;8875;-68
2022/02/26 11:36:14;;;;;;;;;34.00;32.75;12.60;43.30;;;;;;4918294;29;9485;-68
2022/02/26 11:38:43;;;;;;;;;35.25;34.00;12.60;43.90;;;;;;4918014;29;8798;-69
2022/02/26 11:41:19;;;;;;;;;36.00;34.50;12.30;44.30;;;;;;4918051;29;8787;-68
2022/02/26 11:43:47;;;;;;;;;35.75;32.25;11.70;45.30;;;;;;4918205;29;8787;-69
2022/02/26 11:46:40;;;;;;;;;34.75;34.00;11.80;47.20;;;;;;4917910;29;8810;-70
2022/02/26 11:49:27;;;;;;;;;33.25;29.00;11.10;47.80;;;;;;4916012;29;8783;-69
2022/02/26 11:51:52;;;;;;;;;34.25;30.25;11.30;49.00;;;;;;4917931;29;8811;-66
2022/02/26 11:54:21;;;;;;;;;35.50;33.25;10.80;49.30;;;;;;4917711;29;9438;-65
2022/02/26 11:56:52;;;;;;;;;41.75;37.50;11.20;49.20;;;;;;4917561;29;8898;-65
2022/02/26 11:59:41;;;;;;;;;46.25;40.50;11.50;49.90;;;;;;4918039;29;8822;-64
2022/02/26 12:02:10;;;;;;;;;35.75;31.25;10.80;50.20;;;;;;4917725;29;8830;-64
2022/02/26 12:04:57;;;;;;;;;32.00;30.00;11.30;50.00;;;;;;4917876;29;8783;-68
2022/02/26 12:07:31;;;;;;;;;56.25;46.25;11.80;49.10;;;;;;4917784;29;8771;-66
2022/02/26 12:10:01;;;;;;;;;50.00;38.50;12.00;47.50;;;;;;4917731;29;8779;-71
2022/02/26 12:12:36;;;;;;;;;32.00;30.00;11.80;49.10;;;;;;4917740;29;8811;-65
2022/02/26 12:15:16;;;;;;;;;35.50;32.00;10.60;49.90;;;;;;4917809;29;8780;-63
2022/02/26 12:17:46;;;;;;;;;36.00;34.00;10.00;53.10;;;;;;4917693;29;8775;-66
2022/02/26 12:20:21;;;;;;;;;38.00;35.75;10.20;53.90;;;;;;4916484;29;8811;-63
2022/02/26 12:22:48;;;;;;;;;33.00;29.00;10.20;55.40;;;;;;4911852;29;8863;-65
2022/02/26 12:25:17;;;;;;;;;37.75;36.00;10.10;54.50;;;;;;4916220;29;8796;-65
2022/02/26 12:27:43;;;;;;;;;44.75;38.00;10.10;55.60;;;;;;4915632;29;8842;-66
2022/02/26 12:30:14;;;;;;;;;51.00;40.75;10.70;54.10;;;;;;4916946;29;8826;-65
2022/02/26 12:33:03;;;;;;;;;50.00;42.50;11.40;52.60;;;;;;4916958;29;8891;-66
2022/02/26 12:35:35;;;;;;;;;48.00;39.00;12.10;50.30;;;;;;4910913;29;8978;-67
2022/02/26 12:38:01;;;;;;;;;47.25;39.25;12.40;49.20;;;;;;4919038;29;8799;-66
2022/02/26 12:40:34;;;;;;;;;59.25;46.50;12.20;49.80;;;;;;4920560;29;9492;-66
2022/02/26 12:43:03;;;;;;;;;53.50;44.25;11.60;51.60;;;;;;4920187;29;8838;-63
2022/02/26 12:45:40;;;;;;;;;53.75;43.50;11.60;50.70;;;;;;4912547;29;8783;-67